sensor_id;sensor_type;location;lat;lon;timestamp;P1;durP1;ratioP1;P2;durP2;ratioP2
84897;SDS011;75162;42.120;21.734;2024-03-02T00:02:24;17.38;;;10.70;;
84897;SDS011;75162;42.120;21.734;2024-03-02T00:04:51;17.10;;;10.75;;
84897;SDS011;75162;42.120;21.734;2024-03-02T00:07:17;21.08;;;11.48;;
84897;SDS011;75162;42.120;21.734;2024-03-02T00:09:43;20.02;;;10.60;;
84897;SDS011;75162;42.120;21.734;2024-03-02T00:12:11;15.70;;;11.77;;
84897;SDS011;75162;42.120;21.734;2024-03-02T00:14:41;16.17;;;10.50;;
84897;SDS011;75162;42.120;21.734;2024-03-02T00:17:09;15.65;;;9.93;;
84897;SDS011;75162;42.120;21.734;2024-03-02T00:19:40;15.65;;;10.45;;
84897;SDS011;75162;42.120;21.734;2024-03-02T00:22:06;14.82;;;10.07;;
84897;SDS011;75162;42.120;21.734;2024-03-02T00:24:36;14.23;;;9.90;;
84897;SDS011;75162;42.120;21.734;2024-03-02T00:27:03;14.48;;;9.98;;
84897;SDS011;75162;42.120;21.734;2024-03-02T00:29:30;15.73;;;11.50;;
84897;SDS011;75162;42.120;21.734;2024-03-02T00:31:56;17.60;;;11.75;;
84897;SDS011;75162;42.120;21.734;2024-03-02T00:34:23;17.08;;;12.27;;
84897;SDS011;75162;42.120;21.734;2024-03-02T00:36:49;13.70;;;10.35;;
84897;SDS011;75162;42.120;21.734;2024-03-02T00:39:16;15.85;;;10.90;;
84897;SDS011;75162;42.120;21.734;2024-03-02T00:41:42;15.75;;;12.10;;
84897;SDS011;75162;42.120;21.734;2024-03-02T00:44:09;17.83;;;12.23;;
84897;SDS011;75162;42.120;21.734;2024-03-02T00:46:37;19.77;;;13.88;;
84897;SDS011;75162;42.120;21.734;2024-03-02T00:49:03;17.80;;;12.73;;
84897;SDS011;75162;42.120;21.734;2024-03-02T00:51:31;25.38;;;16.08;;
84897;SDS011;75162;42.120;21.734;2024-03-02T00:53:58;26.90;;;17.15;;
84897;SDS011;75162;42.120;21.734;2024-03-02T00:56:24;25.00;;;18.05;;
84897;SDS011;75162;42.120;21.734;2024-03-02T00:58:51;17.15;;;12.65;;
84897;SDS011;75162;42.120;21.734;2024-03-02T01:01:17;16.45;;;11.38;;
84897;SDS011;75162;42.120;21.734;2024-03-02T01:03:44;20.23;;;11.52;;
84897;SDS011;75162;42.120;21.734;2024-03-02T01:06:11;17.73;;;11.07;;
84897;SDS011;75162;42.120;21.734;2024-03-02T01:08:37;19.73;;;12.23;;
84897;SDS011;75162;42.120;21.734;2024-03-02T01:11:04;16.27;;;11.63;;
84897;SDS011;75162;42.120;21.734;2024-03-02T01:13:30;15.95;;;11.15;;
84897;SDS011;75162;42.120;21.734;2024-03-02T01:16:00;15.45;;;10.77;;
84897;SDS011;75162;42.120;21.734;2024-03-02T01:18:26;14.73;;;10.65;;
84897;SDS011;75162;42.120;21.734;2024-03-02T01:20:52;18.83;;;10.73;;
84897;SDS011;75162;42.120;21.734;2024-03-02T01:23:21;14.95;;;11.05;;
84897;SDS011;75162;42.120;21.734;2024-03-02T01:25:47;17.10;;;9.35;;
84897;SDS011;75162;42.120;21.734;2024-03-02T01:28:14;13.68;;;10.82;;
84897;SDS011;75162;42.120;21.734;2024-03-02T01:30:40;15.45;;;10.77;;
84897;SDS011;75162;42.120;21.734;2024-03-02T01:33:06;15.20;;;10.40;;
84897;SDS011;75162;42.120;21.734;2024-03-02T01:35:32;14.48;;;10.43;;
84897;SDS011;75162;42.120;21.734;2024-03-02T01:38:00;14.10;;;10.25;;
84897;SDS011;75162;42.120;21.734;2024-03-02T01:40:26;12.95;;;9.13;;
84897;SDS011;75162;42.120;21.734;2024-03-02T01:42:55;13.13;;;9.38;;
84897;SDS011;75162;42.120;21.734;2024-03-02T01:45:26;12.45;;;9.32;;
84897;SDS011;75162;42.120;21.734;2024-03-02T01:47:52;12.50;;;9.02;;
84897;SDS011;75162;42.120;21.734;2024-03-02T01:50:24;14.95;;;9.52;;
84897;SDS011;75162;42.120;21.734;2024-03-02T01:52:51;12.32;;;9.27;;
84897;SDS011;75162;42.120;21.734;2024-03-02T01:55:17;13.30;;;9.15;;
84897;SDS011;75162;42.120;21.734;2024-03-02T01:57:43;12.57;;;8.90;;
84897;SDS011;75162;42.120;21.734;2024-03-02T02:00:10;14.38;;;9.18;;
84897;SDS011;75162;42.120;21.734;2024-03-02T02:02:36;16.83;;;10.32;;
84897;SDS011;75162;42.120;21.734;2024-03-02T02:05:02;13.10;;;9.50;;
84897;SDS011;75162;42.120;21.734;2024-03-02T02:07:29;16.35;;;10.45;;
84897;SDS011;75162;42.120;21.734;2024-03-02T02:09:56;18.00;;;11.30;;
84897;SDS011;75162;42.120;21.734;2024-03-02T02:12:22;14.80;;;10.82;;
84897;SDS011;75162;42.120;21.734;2024-03-02T02:14:49;15.52;;;12.82;;
84897;SDS011;75162;42.120;21.734;2024-03-02T02:17:18;17.38;;;11.77;;
84897;SDS011;75162;42.120;21.734;2024-03-02T02:19:44;16.52;;;11.10;;
84897;SDS011;75162;42.120;21.734;2024-03-02T02:22:11;17.98;;;11.93;;
84897;SDS011;75162;42.120;21.734;2024-03-02T02:24:43;14.75;;;10.20;;
84897;SDS011;75162;42.120;21.734;2024-03-02T02:27:09;15.68;;;10.75;;
84897;SDS011;75162;42.120;21.734;2024-03-02T02:29:35;15.95;;;10.93;;
84897;SDS011;75162;42.120;21.734;2024-03-02T02:32:01;15.20;;;11.07;;
84897;SDS011;75162;42.120;21.734;2024-03-02T02:34:28;15.98;;;11.82;;
84897;SDS011;75162;42.120;21.734;2024-03-02T02:36:54;19.23;;;13.88;;
84897;SDS011;75162;42.120;21.734;2024-03-02T02:39:21;17.33;;;12.80;;
84897;SDS011;75162;42.120;21.734;2024-03-02T02:41:50;19.65;;;13.35;;
84897;SDS011;75162;42.120;21.734;2024-03-02T02:44:16;22.65;;;15.52;;
84897;SDS011;75162;42.120;21.734;2024-03-02T02:46:42;21.10;;;14.57;;
84897;SDS011;75162;42.120;21.734;2024-03-02T02:49:08;22.35;;;16.00;;
84897;SDS011;75162;42.120;21.734;2024-03-02T02:51:35;22.58;;;16.05;;
84897;SDS011;75162;42.120;21.734;2024-03-02T02:54:01;22.33;;;15.25;;
84897;SDS011;75162;42.120;21.734;2024-03-02T02:56:27;22.88;;;15.77;;
84897;SDS011;75162;42.120;21.734;2024-03-02T02:58:53;21.98;;;15.60;;
84897;SDS011;75162;42.120;21.734;2024-03-02T03:01:19;19.55;;;13.40;;
84897;SDS011;75162;42.120;21.734;2024-03-02T03:03:45;18.75;;;13.73;;
84897;SDS011;75162;42.120;21.734;2024-03-02T03:06:12;21.98;;;14.52;;
84897;SDS011;75162;42.120;21.734;2024-03-02T03:08:38;24.90;;;14.85;;
84897;SDS011;75162;42.120;21.734;2024-03-02T03:11:04;19.73;;;13.02;;
84897;SDS011;75162;42.120;21.734;2024-03-02T03:13:33;19.70;;;13.93;;
84897;SDS011;75162;42.120;21.734;2024-03-02T03:16:00;19.55;;;13.93;;
84897;SDS011;75162;42.120;21.734;2024-03-02T03:18:26;20.08;;;14.05;;
84897;SDS011;75162;42.120;21.734;2024-03-02T03:20:52;18.80;;;12.98;;
84897;SDS011;75162;42.120;21.734;2024-03-02T03:23:18;21.08;;;14.10;;
84897;SDS011;75162;42.120;21.734;2024-03-02T03:25:44;22.27;;;15.20;;
84897;SDS011;75162;42.120;21.734;2024-03-02T03:28:10;21.50;;;14.90;;
84897;SDS011;75162;42.120;21.734;2024-03-02T03:30:36;22.77;;;15.27;;
84897;SDS011;75162;42.120;21.734;2024-03-02T03:33:03;21.92;;;15.00;;
84897;SDS011;75162;42.120;21.734;2024-03-02T03:35:31;23.50;;;15.73;;
84897;SDS011;75162;42.120;21.734;2024-03-02T03:37:57;25.42;;;15.40;;
84897;SDS011;75162;42.120;21.734;2024-03-02T03:40:23;22.35;;;14.73;;
84897;SDS011;75162;42.120;21.734;2024-03-02T03:42:49;23.63;;;16.10;;
84897;SDS011;75162;42.120;21.734;2024-03-02T03:45:16;23.73;;;15.95;;
84897;SDS011;75162;42.120;21.734;2024-03-02T03:47:42;22.75;;;15.18;;
84897;SDS011;75162;42.120;21.734;2024-03-02T03:50:09;23.60;;;15.15;;
84897;SDS011;75162;42.120;21.734;2024-03-02T03:52:35;25.63;;;16.27;;
84897;SDS011;75162;42.120;21.734;2024-03-02T03:55:01;27.10;;;17.63;;
84897;SDS011;75162;42.120;21.734;2024-03-02T03:57:27;25.15;;;17.60;;
84897;SDS011;75162;42.120;21.734;2024-03-02T03:59:53;26.92;;;15.85;;
84897;SDS011;75162;42.120;21.734;2024-03-02T04:02:19;24.40;;;16.52;;
84897;SDS011;75162;42.120;21.734;2024-03-02T04:04:45;31.10;;;20.95;;
84897;SDS011;75162;42.120;21.734;2024-03-02T04:07:12;34.25;;;22.10;;
84897;SDS011;75162;42.120;21.734;2024-03-02T04:09:38;74.95;;;36.78;;
84897;SDS011;75162;42.120;21.734;2024-03-02T04:12:04;106.88;;;41.72;;
84897;SDS011;75162;42.120;21.734;2024-03-02T04:14:30;46.92;;;30.15;;
84897;SDS011;75162;42.120;21.734;2024-03-02T04:16:57;41.60;;;29.10;;
84897;SDS011;75162;42.120;21.734;2024-03-02T04:19:23;26.52;;;17.95;;
84897;SDS011;75162;42.120;21.734;2024-03-02T04:21:49;29.77;;;18.42;;
84897;SDS011;75162;42.120;21.734;2024-03-02T04:24:15;26.98;;;18.30;;
84897;SDS011;75162;42.120;21.734;2024-03-02T04:26:41;25.70;;;17.90;;
84897;SDS011;75162;42.120;21.734;2024-03-02T04:29:07;27.02;;;16.92;;
84897;SDS011;75162;42.120;21.734;2024-03-02T04:31:33;30.38;;;18.17;;
84897;SDS011;75162;42.120;21.734;2024-03-02T04:33:59;26.35;;;17.77;;
84897;SDS011;75162;42.120;21.734;2024-03-02T04:36:25;26.88;;;17.52;;
84897;SDS011;75162;42.120;21.734;2024-03-02T04:38:51;25.65;;;17.02;;
84897;SDS011;75162;42.120;21.734;2024-03-02T04:41:17;26.88;;;18.45;;
84897;SDS011;75162;42.120;21.734;2024-03-02T04:43:43;30.33;;;18.23;;
84897;SDS011;75162;42.120;21.734;2024-03-02T04:46:10;26.92;;;16.73;;
84897;SDS011;75162;42.120;21.734;2024-03-02T04:48:37;23.70;;;16.23;;
84897;SDS011;75162;42.120;21.734;2024-03-02T04:51:03;23.88;;;17.15;;
84897;SDS011;75162;42.120;21.734;2024-03-02T04:53:29;24.83;;;17.02;;
84897;SDS011;75162;42.120;21.734;2024-03-02T04:55:55;27.50;;;16.85;;
84897;SDS011;75162;42.120;21.734;2024-03-02T04:58:40;22.73;;;15.10;;
84897;SDS011;75162;42.120;21.734;2024-03-02T05:01:07;24.50;;;16.58;;
84897;SDS011;75162;42.120;21.734;2024-03-02T05:03:33;27.48;;;17.60;;
84897;SDS011;75162;42.120;21.734;2024-03-02T05:05:59;27.98;;;17.52;;
84897;SDS011;75162;42.120;21.734;2024-03-02T05:08:26;26.30;;;18.48;;
84897;SDS011;75162;42.120;21.734;2024-03-02T05:10:52;27.88;;;19.70;;
84897;SDS011;75162;42.120;21.734;2024-03-02T05:13:18;29.73;;;19.23;;
84897;SDS011;75162;42.120;21.734;2024-03-02T05:15:46;25.92;;;17.90;;
84897;SDS011;75162;42.120;21.734;2024-03-02T05:18:12;25.48;;;18.23;;
84897;SDS011;75162;42.120;21.734;2024-03-02T05:20:38;27.63;;;18.80;;
84897;SDS011;75162;42.120;21.734;2024-03-02T05:23:04;27.17;;;17.30;;
84897;SDS011;75162;42.120;21.734;2024-03-02T05:25:30;28.60;;;18.38;;
84897;SDS011;75162;42.120;21.734;2024-03-02T05:27:57;27.33;;;17.80;;
84897;SDS011;75162;42.120;21.734;2024-03-02T05:30:23;24.48;;;16.65;;
84897;SDS011;75162;42.120;21.734;2024-03-02T05:32:51;27.40;;;17.50;;
84897;SDS011;75162;42.120;21.734;2024-03-02T05:35:17;27.83;;;18.80;;
84897;SDS011;75162;42.120;21.734;2024-03-02T05:37:43;28.48;;;18.83;;
84897;SDS011;75162;42.120;21.734;2024-03-02T05:40:09;35.90;;;22.23;;
84897;SDS011;75162;42.120;21.734;2024-03-02T05:42:36;31.33;;;19.80;;
84897;SDS011;75162;42.120;21.734;2024-03-02T05:45:03;29.65;;;20.08;;
84897;SDS011;75162;42.120;21.734;2024-03-02T05:47:29;32.65;;;21.50;;
84897;SDS011;75162;42.120;21.734;2024-03-02T05:49:55;31.85;;;20.88;;
84897;SDS011;75162;42.120;21.734;2024-03-02T05:52:21;28.20;;;19.17;;
84897;SDS011;75162;42.120;21.734;2024-03-02T05:54:47;27.15;;;18.77;;
84897;SDS011;75162;42.120;21.734;2024-03-02T05:57:14;27.15;;;18.92;;
84897;SDS011;75162;42.120;21.734;2024-03-02T06:00:19;32.72;;;22.00;;
84897;SDS011;75162;42.120;21.734;2024-03-02T06:02:45;32.88;;;22.25;;
84897;SDS011;75162;42.120;21.734;2024-03-02T06:05:11;31.60;;;22.17;;
84897;SDS011;75162;42.120;21.734;2024-03-02T06:07:37;39.92;;;25.75;;
84897;SDS011;75162;42.120;21.734;2024-03-02T06:10:04;33.03;;;23.60;;
84897;SDS011;75162;42.120;21.734;2024-03-02T06:12:32;27.83;;;19.80;;
84897;SDS011;75162;42.120;21.734;2024-03-02T06:14:58;31.50;;;22.70;;
84897;SDS011;75162;42.120;21.734;2024-03-02T06:17:24;37.47;;;26.10;;
84897;SDS011;75162;42.120;21.734;2024-03-02T06:19:50;27.42;;;19.83;;
84897;SDS011;75162;42.120;21.734;2024-03-02T06:22:16;40.67;;;25.40;;
84897;SDS011;75162;42.120;21.734;2024-03-02T06:24:44;34.03;;;22.70;;
84897;SDS011;75162;42.120;21.734;2024-03-02T06:27:10;21.13;;;13.15;;
84897;SDS011;75162;42.120;21.734;2024-03-02T06:29:36;21.83;;;13.75;;
84897;SDS011;75162;42.120;21.734;2024-03-02T06:32:02;17.50;;;12.40;;
84897;SDS011;75162;42.120;21.734;2024-03-02T06:34:28;14.35;;;10.27;;
84897;SDS011;75162;42.120;21.734;2024-03-02T06:36:54;16.15;;;10.98;;
84897;SDS011;75162;42.120;21.734;2024-03-02T06:39:20;16.58;;;11.82;;
84897;SDS011;75162;42.120;21.734;2024-03-02T06:41:46;16.42;;;10.85;;
84897;SDS011;75162;42.120;21.734;2024-03-02T06:44:13;17.85;;;13.27;;
84897;SDS011;75162;42.120;21.734;2024-03-02T06:46:39;17.83;;;12.45;;
84897;SDS011;75162;42.120;21.734;2024-03-02T06:49:05;22.60;;;15.57;;
84897;SDS011;75162;42.120;21.734;2024-03-02T06:51:31;15.48;;;11.65;;
84897;SDS011;75162;42.120;21.734;2024-03-02T06:53:57;17.13;;;12.35;;
84897;SDS011;75162;42.120;21.734;2024-03-02T06:56:23;16.83;;;12.35;;
84897;SDS011;75162;42.120;21.734;2024-03-02T06:58:49;20.63;;;15.82;;
84897;SDS011;75162;42.120;21.734;2024-03-02T07:01:15;19.42;;;15.10;;
84897;SDS011;75162;42.120;21.734;2024-03-02T07:03:41;19.85;;;14.48;;
84897;SDS011;75162;42.120;21.734;2024-03-02T07:06:09;18.42;;;12.60;;
84897;SDS011;75162;42.120;21.734;2024-03-02T07:08:35;17.77;;;13.77;;
84897;SDS011;75162;42.120;21.734;2024-03-02T07:11:01;17.88;;;11.05;;
84897;SDS011;75162;42.120;21.734;2024-03-02T07:13:27;25.65;;;14.65;;
84897;SDS011;75162;42.120;21.734;2024-03-02T07:15:53;26.70;;;13.40;;
84897;SDS011;75162;42.120;21.734;2024-03-02T07:18:29;19.75;;;11.60;;
84897;SDS011;75162;42.120;21.734;2024-03-02T07:20:56;12.50;;;9.52;;
84897;SDS011;75162;42.120;21.734;2024-03-02T07:23:26;14.32;;;9.95;;
84897;SDS011;75162;42.120;21.734;2024-03-02T07:25:52;16.73;;;11.20;;
84897;SDS011;75162;42.120;21.734;2024-03-02T07:28:25;16.10;;;10.23;;
84897;SDS011;75162;42.120;21.734;2024-03-02T07:31:01;15.55;;;10.88;;
84897;SDS011;75162;42.120;21.734;2024-03-02T07:33:27;16.38;;;12.23;;
84897;SDS011;75162;42.120;21.734;2024-03-02T07:35:53;22.60;;;15.95;;
84897;SDS011;75162;42.120;21.734;2024-03-02T07:38:20;19.60;;;15.00;;
84897;SDS011;75162;42.120;21.734;2024-03-02T07:40:47;18.50;;;12.63;;
84897;SDS011;75162;42.120;21.734;2024-03-02T07:43:16;19.73;;;14.02;;
84897;SDS011;75162;42.120;21.734;2024-03-02T07:45:42;16.60;;;12.05;;
84897;SDS011;75162;42.120;21.734;2024-03-02T07:48:08;14.10;;;10.18;;
84897;SDS011;75162;42.120;21.734;2024-03-02T07:50:34;12.85;;;9.57;;
84897;SDS011;75162;42.120;21.734;2024-03-02T07:53:00;15.15;;;11.43;;
84897;SDS011;75162;42.120;21.734;2024-03-02T07:55:27;17.33;;;10.80;;
84897;SDS011;75162;42.120;21.734;2024-03-02T07:57:53;20.45;;;13.65;;
84897;SDS011;75162;42.120;21.734;2024-03-02T08:00:19;20.88;;;14.93;;
84897;SDS011;75162;42.120;21.734;2024-03-02T08:02:45;17.45;;;11.73;;
84897;SDS011;75162;42.120;21.734;2024-03-02T08:05:11;14.30;;;10.23;;
84897;SDS011;75162;42.120;21.734;2024-03-02T08:07:37;12.73;;;9.88;;
84897;SDS011;75162;42.120;21.734;2024-03-02T08:10:04;13.07;;;8.38;;
84897;SDS011;75162;42.120;21.734;2024-03-02T08:12:30;13.20;;;8.07;;
84897;SDS011;75162;42.120;21.734;2024-03-02T08:14:56;13.93;;;8.63;;
84897;SDS011;75162;42.120;21.734;2024-03-02T08:17:22;11.85;;;8.20;;
84897;SDS011;75162;42.120;21.734;2024-03-02T08:19:48;9.77;;;5.88;;
84897;SDS011;75162;42.120;21.734;2024-03-02T08:22:15;10.30;;;6.75;;
84897;SDS011;75162;42.120;21.734;2024-03-02T08:24:41;12.82;;;8.25;;
84897;SDS011;75162;42.120;21.734;2024-03-02T08:27:07;11.50;;;8.00;;
84897;SDS011;75162;42.120;21.734;2024-03-02T08:29:34;7.10;;;5.65;;
84897;SDS011;75162;42.120;21.734;2024-03-02T08:32:00;9.98;;;5.53;;
84897;SDS011;75162;42.120;21.734;2024-03-02T08:34:26;8.13;;;5.03;;
84897;SDS011;75162;42.120;21.734;2024-03-02T08:36:52;4.25;;;3.13;;
84897;SDS011;75162;42.120;21.734;2024-03-02T08:39:18;3.42;;;2.72;;
84897;SDS011;75162;42.120;21.734;2024-03-02T08:41:45;3.83;;;1.88;;
84897;SDS011;75162;42.120;21.734;2024-03-02T08:44:12;3.30;;;1.48;;
84897;SDS011;75162;42.120;21.734;2024-03-02T08:46:38;3.00;;;1.80;;
84897;SDS011;75162;42.120;21.734;2024-03-02T08:49:04;2.67;;;1.52;;
84897;SDS011;75162;42.120;21.734;2024-03-02T08:51:31;3.17;;;2.22;;
84897;SDS011;75162;42.120;21.734;2024-03-02T08:53:57;6.95;;;3.92;;
84897;SDS011;75162;42.120;21.734;2024-03-02T08:56:23;10.18;;;5.72;;
84897;SDS011;75162;42.120;21.734;2024-03-02T08:58:50;9.48;;;5.00;;
84897;SDS011;75162;42.120;21.734;2024-03-02T09:01:16;8.50;;;6.82;;
84897;SDS011;75162;42.120;21.734;2024-03-02T09:03:42;12.75;;;6.82;;
84897;SDS011;75162;42.120;21.734;2024-03-02T09:06:09;8.73;;;6.22;;
84897;SDS011;75162;42.120;21.734;2024-03-02T09:08:36;9.07;;;6.38;;
84897;SDS011;75162;42.120;21.734;2024-03-02T09:11:03;9.20;;;6.03;;
84897;SDS011;75162;42.120;21.734;2024-03-02T09:13:29;12.73;;;7.32;;
84897;SDS011;75162;42.120;21.734;2024-03-02T09:15:56;8.27;;;5.65;;
84897;SDS011;75162;42.120;21.734;2024-03-02T09:18:22;9.18;;;5.50;;
84897;SDS011;75162;42.120;21.734;2024-03-02T09:20:48;11.90;;;5.72;;
84897;SDS011;75162;42.120;21.734;2024-03-02T09:23:14;8.35;;;4.07;;
84897;SDS011;75162;42.120;21.734;2024-03-02T09:25:41;9.10;;;4.97;;
84897;SDS011;75162;42.120;21.734;2024-03-02T09:28:07;6.25;;;3.42;;
84897;SDS011;75162;42.120;21.734;2024-03-02T09:30:33;6.97;;;2.85;;
84897;SDS011;75162;42.120;21.734;2024-03-02T09:33:00;6.47;;;2.80;;
84897;SDS011;75162;42.120;21.734;2024-03-02T09:35:26;5.50;;;2.75;;
84897;SDS011;75162;42.120;21.734;2024-03-02T09:37:52;8.23;;;4.03;;
84897;SDS011;75162;42.120;21.734;2024-03-02T09:40:21;6.40;;;3.65;;
84897;SDS011;75162;42.120;21.734;2024-03-02T09:42:47;6.32;;;3.08;;
84897;SDS011;75162;42.120;21.734;2024-03-02T09:45:19;8.90;;;3.35;;
84897;SDS011;75162;42.120;21.734;2024-03-02T09:47:48;7.40;;;3.15;;
84897;SDS011;75162;42.120;21.734;2024-03-02T09:50:14;6.22;;;2.75;;
84897;SDS011;75162;42.120;21.734;2024-03-02T09:52:44;5.13;;;2.50;;
84897;SDS011;75162;42.120;21.734;2024-03-02T09:55:11;6.10;;;2.78;;
84897;SDS011;75162;42.120;21.734;2024-03-02T09:57:37;4.80;;;2.50;;
84897;SDS011;75162;42.120;21.734;2024-03-02T10:00:04;8.32;;;3.83;;
84897;SDS011;75162;42.120;21.734;2024-03-02T10:02:31;5.20;;;2.90;;
84897;SDS011;75162;42.120;21.734;2024-03-02T10:04:57;5.72;;;2.20;;
84897;SDS011;75162;42.120;21.734;2024-03-02T10:07:23;4.07;;;2.05;;
84897;SDS011;75162;42.120;21.734;2024-03-02T10:09:50;7.63;;;3.28;;
84897;SDS011;75162;42.120;21.734;2024-03-02T10:12:17;6.25;;;3.08;;
84897;SDS011;75162;42.120;21.734;2024-03-02T10:14:44;7.43;;;2.80;;
84897;SDS011;75162;42.120;21.734;2024-03-02T10:17:10;6.15;;;3.05;;
84897;SDS011;75162;42.120;21.734;2024-03-02T10:19:37;8.73;;;3.97;;
84897;SDS011;75162;42.120;21.734;2024-03-02T10:22:04;6.53;;;3.10;;
84897;SDS011;75162;42.120;21.734;2024-03-02T10:24:35;6.53;;;3.67;;
84897;SDS011;75162;42.120;21.734;2024-03-02T10:27:02;7.75;;;3.28;;
84897;SDS011;75162;42.120;21.734;2024-03-02T10:29:32;10.27;;;4.53;;
84897;SDS011;75162;42.120;21.734;2024-03-02T10:31:58;5.32;;;2.42;;
84897;SDS011;75162;42.120;21.734;2024-03-02T10:34:27;9.98;;;4.65;;
84897;SDS011;75162;42.120;21.734;2024-03-02T10:36:54;8.52;;;3.83;;
84897;SDS011;75162;42.120;21.734;2024-03-02T10:39:20;6.05;;;3.15;;
84897;SDS011;75162;42.120;21.734;2024-03-02T10:41:47;16.23;;;7.75;;
84897;SDS011;75162;42.120;21.734;2024-03-02T10:44:14;5.55;;;3.03;;
84897;SDS011;75162;42.120;21.734;2024-03-02T10:46:41;7.85;;;3.15;;
84897;SDS011;75162;42.120;21.734;2024-03-02T10:49:09;9.43;;;4.47;;
84897;SDS011;75162;42.120;21.734;2024-03-02T10:51:35;4.78;;;2.40;;
84897;SDS011;75162;42.120;21.734;2024-03-02T10:54:02;8.65;;;3.22;;
84897;SDS011;75162;42.120;21.734;2024-03-02T10:56:30;6.47;;;2.83;;
84897;SDS011;75162;42.120;21.734;2024-03-02T10:59:01;7.28;;;2.58;;
84897;SDS011;75162;42.120;21.734;2024-03-02T11:01:29;5.55;;;2.72;;
84897;SDS011;75162;42.120;21.734;2024-03-02T11:03:55;5.00;;;2.33;;
84897;SDS011;75162;42.120;21.734;2024-03-02T11:06:22;8.07;;;2.65;;
84897;SDS011;75162;42.120;21.734;2024-03-02T11:08:48;9.15;;;3.15;;
84897;SDS011;75162;42.120;21.734;2024-03-02T11:11:16;7.40;;;2.97;;
84897;SDS011;75162;42.120;21.734;2024-03-02T11:13:48;11.95;;;3.60;;
84897;SDS011;75162;42.120;21.734;2024-03-02T11:18:41;10.40;;;3.53;;
84897;SDS011;75162;42.120;21.734;2024-03-02T11:21:07;6.93;;;3.33;;
84897;SDS011;75162;42.120;21.734;2024-03-02T11:23:34;7.07;;;2.92;;
84897;SDS011;75162;42.120;21.734;2024-03-02T11:26:21;7.20;;;3.03;;
84897;SDS011;75162;42.120;21.734;2024-03-02T11:28:48;11.80;;;3.35;;
84897;SDS011;75162;42.120;21.734;2024-03-02T11:31:14;6.43;;;3.30;;
84897;SDS011;75162;42.120;21.734;2024-03-02T11:33:41;6.50;;;2.95;;
84897;SDS011;75162;42.120;21.734;2024-03-02T11:36:08;6.00;;;2.90;;
84897;SDS011;75162;42.120;21.734;2024-03-02T11:38:34;7.18;;;3.05;;
84897;SDS011;75162;42.120;21.734;2024-03-02T11:41:07;13.07;;;3.67;;
84897;SDS011;75162;42.120;21.734;2024-03-02T11:43:36;9.18;;;3.58;;
84897;SDS011;75162;42.120;21.734;2024-03-02T11:48:32;12.13;;;4.25;;
84897;SDS011;75162;42.120;21.734;2024-03-02T11:50:58;11.82;;;5.55;;
84897;SDS011;75162;42.120;21.734;2024-03-02T11:53:25;5.45;;;2.92;;
84897;SDS011;75162;42.120;21.734;2024-03-02T11:55:52;10.10;;;3.80;;
84897;SDS011;75162;42.120;21.734;2024-03-02T11:58:20;20.25;;;6.25;;
84897;SDS011;75162;42.120;21.734;2024-03-02T12:00:58;8.13;;;3.58;;
84897;SDS011;75162;42.120;21.734;2024-03-02T12:03:24;9.15;;;4.03;;
84897;SDS011;75162;42.120;21.734;2024-03-02T12:05:51;7.22;;;3.08;;
84897;SDS011;75162;42.120;21.734;2024-03-02T12:08:17;7.47;;;2.50;;
84897;SDS011;75162;42.120;21.734;2024-03-02T12:10:43;10.02;;;2.25;;
84897;SDS011;75162;42.120;21.734;2024-03-02T12:13:21;7.20;;;2.53;;
84897;SDS011;75162;42.120;21.734;2024-03-02T12:15:47;6.53;;;2.55;;
84897;SDS011;75162;42.120;21.734;2024-03-02T12:18:13;6.93;;;2.30;;
84897;SDS011;75162;42.120;21.734;2024-03-02T12:20:39;11.70;;;3.25;;
84897;SDS011;75162;42.120;21.734;2024-03-02T12:23:06;6.88;;;3.05;;
84897;SDS011;75162;42.120;21.734;2024-03-02T12:25:32;5.40;;;1.77;;
84897;SDS011;75162;42.120;21.734;2024-03-02T12:27:59;6.05;;;2.40;;
84897;SDS011;75162;42.120;21.734;2024-03-02T12:30:27;4.85;;;1.95;;
84897;SDS011;75162;42.120;21.734;2024-03-02T12:32:53;7.70;;;1.85;;
84897;SDS011;75162;42.120;21.734;2024-03-02T12:35:19;10.43;;;2.70;;
84897;SDS011;75162;42.120;21.734;2024-03-02T12:37:49;6.53;;;2.92;;
84897;SDS011;75162;42.120;21.734;2024-03-02T12:40:16;11.45;;;2.63;;
84897;SDS011;75162;42.120;21.734;2024-03-02T12:42:43;4.68;;;2.30;;
84897;SDS011;75162;42.120;21.734;2024-03-02T12:45:10;7.68;;;3.53;;
84897;SDS011;75162;42.120;21.734;2024-03-02T12:47:36;19.35;;;6.93;;
84897;SDS011;75162;42.120;21.734;2024-03-02T12:50:05;8.95;;;2.92;;
84897;SDS011;75162;42.120;21.734;2024-03-02T12:52:31;7.68;;;2.83;;
84897;SDS011;75162;42.120;21.734;2024-03-02T12:54:59;10.80;;;3.35;;
84897;SDS011;75162;42.120;21.734;2024-03-02T12:57:26;8.48;;;3.05;;
84897;SDS011;75162;42.120;21.734;2024-03-02T12:59:52;6.32;;;2.30;;
84897;SDS011;75162;42.120;21.734;2024-03-02T13:02:22;6.85;;;2.50;;
84897;SDS011;75162;42.120;21.734;2024-03-02T13:04:52;8.70;;;2.47;;
84897;SDS011;75162;42.120;21.734;2024-03-02T13:07:19;8.45;;;2.22;;
84897;SDS011;75162;42.120;21.734;2024-03-02T13:09:48;6.00;;;2.30;;
84897;SDS011;75162;42.120;21.734;2024-03-02T13:12:15;8.20;;;2.83;;
84897;SDS011;75162;42.120;21.734;2024-03-02T13:14:44;6.22;;;3.00;;
84897;SDS011;75162;42.120;21.734;2024-03-02T13:17:10;7.85;;;3.92;;
84897;SDS011;75162;42.120;21.734;2024-03-02T13:19:39;7.82;;;3.65;;
84897;SDS011;75162;42.120;21.734;2024-03-02T13:22:09;9.82;;;4.05;;
84897;SDS011;75162;42.120;21.734;2024-03-02T13:24:35;9.90;;;3.22;;
84897;SDS011;75162;42.120;21.734;2024-03-02T13:27:02;7.15;;;2.42;;
84897;SDS011;75162;42.120;21.734;2024-03-02T13:29:29;8.00;;;3.13;;
84897;SDS011;75162;42.120;21.734;2024-03-02T13:31:55;9.07;;;3.65;;
84897;SDS011;75162;42.120;21.734;2024-03-02T13:34:22;10.15;;;3.50;;
84897;SDS011;75162;42.120;21.734;2024-03-02T13:36:49;8.88;;;3.45;;
84897;SDS011;75162;42.120;21.734;2024-03-02T13:39:15;9.60;;;3.13;;
84897;SDS011;75162;42.120;21.734;2024-03-02T13:41:41;7.78;;;2.70;;
84897;SDS011;75162;42.120;21.734;2024-03-02T13:44:10;10.45;;;4.30;;
84897;SDS011;75162;42.120;21.734;2024-03-02T13:46:36;12.80;;;6.20;;
84897;SDS011;75162;42.120;21.734;2024-03-02T13:49:02;17.67;;;8.43;;
84897;SDS011;75162;42.120;21.734;2024-03-02T13:51:29;10.65;;;4.65;;
84897;SDS011;75162;42.120;21.734;2024-03-02T13:53:55;19.17;;;7.13;;
84897;SDS011;75162;42.120;21.734;2024-03-02T13:56:21;7.82;;;3.40;;
84897;SDS011;75162;42.120;21.734;2024-03-02T13:58:47;5.88;;;3.08;;
84897;SDS011;75162;42.120;21.734;2024-03-02T14:01:14;13.18;;;4.50;;
84897;SDS011;75162;42.120;21.734;2024-03-02T14:03:40;34.95;;;15.05;;
84897;SDS011;75162;42.120;21.734;2024-03-02T14:06:06;16.35;;;6.10;;
84897;SDS011;75162;42.120;21.734;2024-03-02T14:08:33;7.63;;;3.45;;
84897;SDS011;75162;42.120;21.734;2024-03-02T14:11:01;12.30;;;3.47;;
84897;SDS011;75162;42.120;21.734;2024-03-02T14:13:27;10.48;;;4.57;;
84897;SDS011;75162;42.120;21.734;2024-03-02T14:15:54;16.70;;;7.40;;
84897;SDS011;75162;42.120;21.734;2024-03-02T14:18:20;25.17;;;7.90;;
84897;SDS011;75162;42.120;21.734;2024-03-02T14:20:46;9.30;;;4.22;;
84897;SDS011;75162;42.120;21.734;2024-03-02T14:23:17;27.95;;;12.98;;